Time;durP1;ratioP1;P1;durP2;ratioP2;P2;SDS_P1;SDS_P2;PMS_P1;PMS_P2;Temp;Humidity;BMP_temperature;BMP_pressure;BME280_temperature;BME280_humidity;BME280_pressure;Samples;Min_cycle;Max_cycle;Signal;HPM_P1;HPM_P2
2023/01/20 00:01:54;;;;;;;;;17.50;17.25;;;;;;;;4918906;28;45346;-80
2023/01/20 00:04:19;;;;;;;;;15.75;13.25;;;;;;;;4918805;28;45471;-80
2023/01/20 00:06:45;;;;;;;;;18.75;17.50;;;;;;;;4918767;28;45344;-79
2023/01/20 00:09:13;;;;;;;;;33.50;25.75;;;;;;;;4919201;28;45487;-79
2023/01/20 00:11:38;;;;;;;;;35.25;23.50;;;;;;;;4919652;28;45759;-79
2023/01/20 00:14:03;;;;;;;;;25.75;25.25;;;;;;;;4919956;28;45331;-79
2023/01/20 00:16:30;;;;;;;;;23.25;22.00;;;;;;;;4919726;28;45504;-78
2023/01/20 00:18:55;;;;;;;;;25.25;20.00;;;;;;;;4920021;28;45442;-80
2023/01/20 00:21:21;;;;;;;;;31.50;27.75;;;;;;;;4920454;28;45382;-78
2023/01/20 00:23:47;;;;;;;;;23.75;22.00;;;;;;;;4918765;28;45656;-79
2023/01/20 00:26:15;;;;;;;;;34.00;27.25;;;;;;;;4918926;28;45413;-79
2023/01/20 00:28:40;;;;;;;;;27.75;25.25;;;;;;;;4918192;28;45347;-80
2023/01/20 00:31:13;;;;;;;;;24.00;22.00;;;;;;;;4918442;28;46114;-80
2023/01/20 00:33:38;;;;;;;;;22.75;20.25;;;;;;;;4918932;28;45433;-80
2023/01/20 00:36:04;;;;;;;;;27.75;26.25;;;;;;;;4918505;28;45408;-80
2023/01/20 00:38:29;;;;;;;;;24.75;23.00;;;;;;;;4918311;28;45483;-79
2023/01/20 00:40:54;;;;;;;;;30.00;24.50;;;;;;;;4918206;28;46362;-80
2023/01/20 00:43:20;;;;;;;;;28.25;27.00;;;;;;;;4918563;28;45849;-79
2023/01/20 00:45:45;;;;;;;;;30.75;26.75;;;;;;;;4918505;28;45311;-80
2023/01/20 00:48:10;;;;;;;;;25.50;25.50;;;;;;;;4918383;28;45363;-79
2023/01/20 00:50:35;;;;;;;;;21.25;18.50;;;;;;;;4918121;28;45314;-80
2023/01/20 00:53:01;;;;;;;;;28.25;25.00;;;;;;;;4911415;28;45443;-79
2023/01/20 00:55:26;;;;;;;;;32.75;25.75;;;;;;;;4907082;28;45401;-78
2023/01/20 00:57:51;;;;;;;;;23.50;22.75;;;;;;;;4909051;28;45422;-79
2023/01/20 01:00:17;;;;;;;;;26.00;24.25;;;;;;;;4909098;28;46110;-79
2023/01/20 01:02:42;;;;;;;;;22.50;20.00;;;;;;;;4907131;28;46028;-79
2023/01/20 01:05:08;;;;;;;;;26.50;21.00;;;;;;;;4910380;28;45537;-79
2023/01/20 01:07:39;;;;;;;;;25.50;22.75;;;;;;;;4918559;28;45319;-79
2023/01/20 01:10:05;;;;;;;;;23.00;22.50;;;;;;;;4917113;28;45565;-79
2023/01/20 01:12:30;;;;;;;;;31.50;29.25;;;;;;;;4918055;28;45306;-79
2023/01/20 01:14:55;;;;;;;;;35.00;26.75;;;;;;;;4917680;28;45331;-79
2023/01/20 01:17:24;;;;;;;;;24.00;22.00;;;;;;;;4918387;28;45299;-79
2023/01/20 01:19:52;;;;;;;;;30.50;24.00;;;;;;;;4917130;28;47088;-79
2023/01/20 01:22:17;;;;;;;;;34.25;28.75;;;;;;;;4918331;28;45378;-79
2023/01/20 01:24:43;;;;;;;;;38.00;32.75;;;;;;;;4918444;28;45417;-80
2023/01/20 01:27:08;;;;;;;;;27.25;24.50;;;;;;;;4918202;28;45747;-80
2023/01/20 01:29:34;;;;;;;;;29.00;29.00;;;;;;;;4918091;28;46128;-79
2023/01/20 01:31:59;;;;;;;;;33.50;28.25;;;;;;;;4917320;28;45343;-79
2023/01/20 01:34:25;;;;;;;;;29.75;27.00;;;;;;;;4918465;28;45684;-79
2023/01/20 01:36:50;;;;;;;;;30.25;26.00;;;;;;;;4918245;28;45247;-79
2023/01/20 01:39:15;;;;;;;;;25.75;23.50;;;;;;;;4917876;28;45963;-78
2023/01/20 01:41:40;;;;;;;;;29.75;24.25;;;;;;;;4916025;28;45357;-79
2023/01/20 01:44:07;;;;;;;;;32.75;28.75;;;;;;;;4917428;28;45413;-79
2023/01/20 01:46:32;;;;;;;;;33.75;30.00;;;;;;;;4917732;28;45318;-79
2023/01/20 01:48:59;;;;;;;;;28.00;26.25;;;;;;;;4917348;28;46961;-79
2023/01/20 01:51:27;;;;;;;;;29.00;27.50;;;;;;;;4917481;28;45463;-79
2023/01/20 01:53:56;;;;;;;;;27.75;21.75;;;;;;;;4918041;28;45342;-79
2023/01/20 01:56:22;;;;;;;;;26.75;24.50;;;;;;;;4917082;28;45354;-79
2023/01/20 01:58:50;;;;;;;;;29.75;26.00;;;;;;;;4917384;28;45359;-79
2023/01/20 02:01:16;;;;;;;;;20.25;14.00;;;;;;;;4917642;28;45361;-80
2023/01/20 02:03:46;;;;;;;;;23.50;20.50;;;;;;;;4917411;28;45340;-79
2023/01/20 02:06:11;;;;;;;;;21.25;15.75;;;;;;;;4917245;28;45351;-79
2023/01/20 02:08:37;;;;;;;;;23.50;20.00;;;;;;;;4917446;28;46478;-79
2023/01/20 02:11:17;;;;;;;;;26.25;23.00;;;;;;;;4896226;29;45457;-79
2023/01/20 02:13:42;;;;;;;;;28.50;24.75;;;;;;;;4895832;29;45753;-79
2023/01/20 02:16:19;;;;;;;;;24.00;18.75;;;;;;;;4896221;29;45506;-79
2023/01/20 02:18:54;;;;;;;;;32.25;24.75;;;;;;;;4879471;29;48429;-79
2023/01/20 02:21:28;;;;;;;;;23.50;20.00;;;;;;;;4894589;29;45791;-79
2023/01/20 02:24:06;;;;;;;;;20.75;17.50;;;;;;;;4896067;29;45468;-79
2023/01/20 02:26:40;;;;;;;;;20.75;19.50;;;;;;;;4895841;29;45672;-80
2023/01/20 02:29:21;;;;;;;;;17.75;11.00;;;;;;;;4895776;29;45332;-78
2023/01/20 02:31:48;;;;;;;;;20.00;18.00;;;;;;;;4898940;29;45591;-79
2023/01/20 02:34:26;;;;;;;;;15.25;12.50;;;;;;;;4899358;29;45398;-80
2023/01/20 02:37:18;;;;;;;;;16.50;14.25;;;;;;;;4898956;29;45411;-79
2023/01/20 02:39:52;;;;;;;;;17.00;15.25;;;;;;;;4882532;29;47316;-79
2023/01/20 02:42:23;;;;;;;;;24.25;15.75;;;;;;;;4898485;29;45390;-79
2023/01/20 02:45:08;;;;;;;;;15.50;14.00;;;;;;;;4899132;29;45411;-79
2023/01/20 02:47:33;;;;;;;;;21.00;16.75;;;;;;;;4901281;28;45295;-80
2023/01/20 02:50:04;;;;;;;;;9.50;8.25;;;;;;;;4918896;28;48638;-79
2023/01/20 02:52:41;;;;;;;;;15.00;12.25;;;;;;;;4920322;28;45513;-80
2023/01/20 02:55:08;;;;;;;;;13.75;12.25;;;;;;;;4919948;28;45321;-80
2023/01/20 02:57:39;;;;;;;;;18.25;18.25;;;;;;;;4920222;28;45309;-80
2023/01/20 03:00:11;;;;;;;;;15.00;14.50;;;;;;;;4920168;28;45386;-80
2023/01/20 03:02:38;;;;;;;;;17.00;14.25;;;;;;;;4919178;28;45429;-80
2023/01/20 03:05:07;;;;;;;;;18.00;13.50;;;;;;;;4918723;28;45432;-80
2023/01/20 03:07:35;;;;;;;;;16.25;14.75;;;;;;;;4920117;28;45211;-80
2023/01/20 03:10:03;;;;;;;;;16.50;16.25;;;;;;;;4919833;28;45312;-80
2023/01/20 03:12:33;;;;;;;;;22.75;19.50;;;;;;;;4920177;28;45531;-80
2023/01/20 03:14:58;;;;;;;;;16.50;12.50;;;;;;;;4920284;28;45410;-80
2023/01/20 03:17:24;;;;;;;;;17.75;14.75;;;;;;;;4919834;28;45306;-80
2023/01/20 03:19:49;;;;;;;;;21.00;19.25;;;;;;;;4920073;28;47181;-80
2023/01/20 03:22:14;;;;;;;;;27.00;18.50;;;;;;;;4920101;28;45448;-80
2023/01/20 03:24:41;;;;;;;;;24.50;20.50;;;;;;;;4919975;28;45338;-79
2023/01/20 03:27:06;;;;;;;;;25.00;21.50;;;;;;;;4920198;28;45554;-79
2023/01/20 03:29:31;;;;;;;;;19.00;15.25;;;;;;;;4920347;28;45435;-79
2023/01/20 03:31:58;;;;;;;;;24.50;19.75;;;;;;;;4920600;28;45493;-80
2023/01/20 03:34:24;;;;;;;;;14.50;12.75;;;;;;;;4921634;28;45378;-80
2023/01/20 03:36:50;;;;;;;;;18.50;11.75;;;;;;;;4921342;28;45477;-79
2023/01/20 03:39:16;;;;;;;;;19.75;16.75;;;;;;;;4919680;28;46826;-80
2023/01/20 03:42:00;;;;;;;;;14.00;13.75;;;;;;;;4918760;28;45825;-79
2023/01/20 03:44:31;;;;;;;;;28.25;18.75;;;;;;;;4919507;28;45410;-79
2023/01/20 03:46:59;;;;;;;;;16.00;16.00;;;;;;;;4919092;28;45397;-80
2023/01/20 03:49:32;;;;;;;;;23.25;20.75;;;;;;;;4918911;28;45406;-79
2023/01/20 03:52:03;;;;;;;;;23.75;20.50;;;;;;;;4919422;28;45486;-80
2023/01/20 03:54:55;;;;;;;;;22.75;18.00;;;;;;;;4919227;28;45322;-79
2023/01/20 03:57:33;;;;;;;;;26.50;19.00;;;;;;;;4918149;28;45408;-80
2023/01/20 04:00:00;;;;;;;;;21.00;16.25;;;;;;;;4919156;28;45570;-80
2023/01/20 04:02:26;;;;;;;;;19.50;19.50;;;;;;;;4919344;28;45396;-80
2023/01/20 04:04:52;;;;;;;;;25.00;21.00;;;;;;;;4918052;28;45387;-80
2023/01/20 04:07:22;;;;;;;;;23.50;18.75;;;;;;;;4919103;28;45426;-80
2023/01/20 04:09:50;;;;;;;;;19.00;17.50;;;;;;;;4917376;28;46405;-80
2023/01/20 04:12:15;;;;;;;;;22.50;19.75;;;;;;;;4918327;28;45525;-80
2023/01/20 04:14:41;;;;;;;;;21.75;14.25;;;;;;;;4918456;28;45373;-80
2023/01/20 04:17:06;;;;;;;;;21.75;19.25;;;;;;;;4918563;28;45502;-80
2023/01/20 04:19:32;;;;;;;;;21.00;17.25;;;;;;;;4917894;28;45854;-80
2023/01/20 04:22:15;;;;;;;;;26.25;21.00;;;;;;;;4918948;28;45450;-80
2023/01/20 04:25:00;;;;;;;;;20.50;17.75;;;;;;;;4919079;28;45353;-79
2023/01/20 04:27:25;;;;;;;;;18.25;16.50;;;;;;;;4919006;28;45444;-79
2023/01/20 04:29:51;;;;;;;;;26.75;18.25;;;;;;;;4918729;28;45403;-80
2023/01/20 04:32:16;;;;;;;;;18.00;15.25;;;;;;;;4918862;28;45501;-79
2023/01/20 04:34:41;;;;;;;;;19.25;18.50;;;;;;;;4919091;28;45480;-80
2023/01/20 04:37:06;;;;;;;;;16.00;15.00;;;;;;;;4918310;28;45290;-80
2023/01/20 04:39:32;;;;;;;;;21.75;19.50;;;;;;;;4919044;28;45450;-80
2023/01/20 04:41:57;;;;;;;;;26.25;19.75;;;;;;;;4918925;28;45294;-79
2023/01/20 04:44:22;;;;;;;;;26.75;22.00;;;;;;;;4918799;28;45321;-80
2023/01/20 04:46:47;;;;;;;;;30.00;22.50;;;;;;;;4893688;28;45443;-80
2023/01/20 04:49:13;;;;;;;;;24.00;17.25;;;;;;;;4881307;29;45898;-79
2023/01/20 04:51:38;;;;;;;;;26.25;22.75;;;;;;;;4890407;28;45334;-79
2023/01/20 04:54:03;;;;;;;;;26.75;25.75;;;;;;;;4917668;28;45367;-79
2023/01/20 04:56:29;;;;;;;;;37.75;30.25;;;;;;;;4918434;28;45253;-80
2023/01/20 04:58:54;;;;;;;;;27.00;24.25;;;;;;;;4918301;28;46512;-79
2023/01/20 05:01:19;;;;;;;;;28.25;26.25;;;;;;;;4918283;28;45386;-79
2023/01/20 05:03:44;;;;;;;;;24.25;22.75;;;;;;;;4916983;28;45392;-79
2023/01/20 05:06:09;;;;;;;;;28.25;24.00;;;;;;;;4902226;28;45391;-79
2023/01/20 05:08:35;;;;;;;;;22.00;20.00;;;;;;;;4888363;29;47664;-78
2023/01/20 05:11:00;;;;;;;;;26.25;23.50;;;;;;;;4888291;29;45466;-79
2023/01/20 05:13:25;;;;;;;;;28.50;26.50;;;;;;;;4898972;28;45319;-79
2023/01/20 05:15:50;;;;;;;;;33.00;26.50;;;;;;;;4897572;29;45327;-79
2023/01/20 05:18:16;;;;;;;;;29.25;28.25;;;;;;;;4897592;29;46009;-79
2023/01/20 05:20:43;;;;;;;;;28.00;26.50;;;;;;;;4898688;28;45359;-79
2023/01/20 05:23:08;;;;;;;;;28.75;25.00;;;;;;;;4899070;28;45316;-79
2023/01/20 05:25:33;;;;;;;;;31.50;27.50;;;;;;;;4898559;29;45506;-79
2023/01/20 05:27:59;;;;;;;;;34.50;27.25;;;;;;;;4898563;28;45233;-78
2023/01/20 05:30:24;;;;;;;;;29.75;25.25;;;;;;;;4897455;29;46332;-79
2023/01/20 05:32:50;;;;;;;;;22.00;19.25;;;;;;;;4898981;28;45269;-79
2023/01/20 05:35:16;;;;;;;;;27.50;23.75;;;;;;;;4897515;29;45562;-78
2023/01/20 05:37:41;;;;;;;;;23.25;23.00;;;;;;;;4898578;28;46495;-79
2023/01/20 05:40:06;;;;;;;;;26.75;26.25;;;;;;;;4897401;29;45381;-79
2023/01/20 05:42:32;;;;;;;;;33.00;30.75;;;;;;;;4897214;29;45362;-79
2023/01/20 05:44:57;;;;;;;;;39.00;27.75;;;;;;;;4898501;28;45332;-79
2023/01/20 05:47:22;;;;;;;;;27.25;24.00;;;;;;;;4897042;29;46151;-79
2023/01/20 05:49:47;;;;;;;;;29.25;27.25;;;;;;;;4897875;28;45427;-78
2023/01/20 05:52:13;;;;;;;;;30.25;23.00;;;;;;;;4907949;28;45343;-78
2023/01/20 05:54:38;;;;;;;;;28.75;24.75;;;;;;;;4917727;28;45372;-79
2023/01/20 05:57:04;;;;;;;;;25.50;24.25;;;;;;;;4917448;28;45431;-80
2023/01/20 05:59:29;;;;;;;;;29.50;25.75;;;;;;;;4917126;28;45415;-79
2023/01/20 06:01:54;;;;;;;;;39.75;29.75;;;;;;;;4917461;28;45536;-79
2023/01/20 06:04:20;;;;;;;;;23.00;20.00;;;;;;;;4917392;28;45653;-79
2023/01/20 06:06:45;;;;;;;;;24.75;20.00;;;;;;;;4919429;28;45568;-80
2023/01/20 06:09:10;;;;;;;;;31.75;27.50;;;;;;;;4920911;28;45347;-79
2023/01/20 06:11:35;;;;;;;;;20.50;20.00;;;;;;;;4921036;28;45314;-81
2023/01/20 06:14:01;;;;;;;;;20.00;20.00;;;;;;;;4920740;28;45396;-82
2023/01/20 06:16:26;;;;;;;;;29.50;26.25;;;;;;;;4893413;28;45392;-82
2023/01/20 06:18:51;;;;;;;;;24.50;22.50;;;;;;;;4901550;29;45321;-82
2023/01/20 06:21:16;;;;;;;;;28.00;25.00;;;;;;;;4902034;28;45347;-80
2023/01/20 06:23:42;;;;;;;;;27.50;24.25;;;;;;;;4901812;28;45287;-79
2023/01/20 06:26:10;;;;;;;;;26.25;23.75;;;;;;;;4899682;28;46261;-79
2023/01/20 06:28:35;;;;;;;;;26.25;25.00;;;;;;;;4891374;28;45478;-79
2023/01/20 06:31:01;;;;;;;;;31.00;26.25;;;;;;;;4882876;29;45782;-80
2023/01/20 06:33:27;;;;;;;;;24.75;24.50;;;;;;;;4882521;29;45409;-80
2023/01/20 06:35:53;;;;;;;;;27.75;21.75;;;;;;;;4882308;29;45921;-80
2023/01/20 06:38:18;;;;;;;;;27.25;26.25;;;;;;;;4882574;29;45423;-80
2023/01/20 06:40:43;;;;;;;;;23.00;23.00;;;;;;;;4893201;29;45314;-80
2023/01/20 06:43:08;;;;;;;;;28.25;21.25;;;;;;;;4882992;29;45411;-79
2023/01/20 06:45:34;;;;;;;;;29.00;19.75;;;;;;;;4883008;29;47237;-80
2023/01/20 06:47:59;;;;;;;;;30.25;26.50;;;;;;;;4883131;29;45637;-79
2023/01/20 06:50:24;;;;;;;;;25.25;21.50;;;;;;;;4886215;29;45508;-79
2023/01/20 06:52:49;;;;;;;;;23.25;21.00;;;;;;;;4915406;28;45418;-79
2023/01/20 06:55:14;;;;;;;;;24.00;18.25;;;;;;;;4919932;28;45515;-80
2023/01/20 06:57:40;;;;;;;;;22.75;20.50;;;;;;;;4919834;28;45623;-80
2023/01/20 07:00:05;;;;;;;;;27.25;21.00;;;;;;;;4920052;28;45297;-80
2023/01/20 07:02:30;;;;;;;;;24.00;20.75;;;;;;;;4920028;28;45322;-80
2023/01/20 07:04:56;;;;;;;;;28.50;25.75;;;;;;;;4911991;28;45599;-81
2023/01/20 07:07:21;;;;;;;;;28.50;22.75;;;;;;;;4890438;29;45172;-80
2023/01/20 07:09:46;;;;;;;;;26.00;21.50;;;;;;;;4881928;29;45383;-81
2023/01/20 07:12:12;;;;;;;;;31.75;24.00;;;;;;;;4880619;29;45323;-80
2023/01/20 07:14:37;;;;;;;;;25.25;22.50;;;;;;;;4881972;29;45364;-80
2023/01/20 07:17:02;;;;;;;;;26.50;21.00;;;;;;;;4880634;29;45653;-80
2023/01/20 07:19:27;;;;;;;;;24.75;24.75;;;;;;;;4882056;29;45369;-80
2023/01/20 07:21:52;;;;;;;;;24.50;20.75;;;;;;;;4881465;29;45470;-79
2023/01/20 07:24:18;;;;;;;;;26.75;21.00;;;;;;;;4881663;29;47111;-79
2023/01/20 07:26:43;;;;;;;;;22.75;19.00;;;;;;;;4881511;29;45309;-78
2023/01/20 07:29:08;;;;;;;;;28.25;25.25;;;;;;;;4881759;29;45172;-79
2023/01/20 07:31:33;;;;;;;;;20.25;20.00;;;;;;;;4881098;29;45456;-79
2023/01/20 07:33:59;;;;;;;;;34.25;21.75;;;;;;;;4896065;29;47192;-78
2023/01/20 07:36:24;;;;;;;;;27.00;23.75;;;;;;;;4881513;29;45492;-78
2023/01/20 07:38:50;;;;;;;;;24.75;21.25;;;;;;;;4881711;29;45237;-78
2023/01/20 07:41:17;;;;;;;;;25.75;22.75;;;;;;;;4881753;29;45343;-79
2023/01/20 07:43:42;;;;;;;;;20.25;19.50;;;;;;;;4881250;29;46211;-78
2023/01/20 07:46:08;;;;;;;;;30.25;24.25;;;;;;;;4880158;29;45508;-78
2023/01/20 07:48:33;;;;;;;;;32.00;28.00;;;;;;;;4881331;29;45404;-78
2023/01/20 07:51:04;;;;;;;;;30.25;29.00;;;;;;;;4881435;29;45323;-79
2023/01/20 07:53:30;;;;;;;;;29.25;24.75;;;;;;;;4880998;29;47115;-79
2023/01/20 07:55:59;;;;;;;;;29.50;23.50;;;;;;;;4881480;29;45654;-75
2023/01/20 07:58:24;;;;;;;;;40.25;34.50;;;;;;;;4882066;29;45331;-75
2023/01/20 08:00:49;;;;;;;;;25.50;18.75;;;;;;;;4882243;29;45569;-76
2023/01/20 08:03:15;;;;;;;;;25.00;23.25;;;;;;;;4897311;29;47378;-75
2023/01/20 08:05:41;;;;;;;;;22.50;19.75;;;;;;;;4881230;29;45457;-75
2023/01/20 08:08:06;;;;;;;;;24.50;23.50;;;;;;;;4883988;28;45532;-76
2023/01/20 08:10:31;;;;;;;;;19.50;16.50;;;;;;;;4900275;28;45470;-75
2023/01/20 08:12:57;;;;;;;;;26.00;21.25;;;;;;;;4898526;28;45690;-75
2023/01/20 08:15:22;;;;;;;;;22.00;20.75;;;;;;;;4899769;28;45674;-75
2023/01/20 08:17:51;;;;;;;;;22.25;18.25;;;;;;;;4900874;28;45287;-75
2023/01/20 08:20:17;;;;;;;;;24.50;21.00;;;;;;;;4898939;29;45474;-76
2023/01/20 08:22:42;;;;;;;;;22.75;20.25;;;;;;;;4899902;28;45407;-75
2023/01/20 08:25:07;;;;;;;;;23.25;19.00;;;;;;;;4900153;28;45455;-75
2023/01/20 08:27:32;;;;;;;;;22.25;21.00;;;;;;;;4900038;28;45266;-74
2023/01/20 08:29:57;;;;;;;;;26.25;25.00;;;;;;;;4899561;28;45247;-75
2023/01/20 08:32:23;;;;;;;;;16.50;11.75;;;;;;;;4899565;28;47063;-75
2023/01/20 08:34:48;;;;;;;;;30.00;23.50;;;;;;;;4899813;28;45351;-75
2023/01/20 08:37:13;;;;;;;;;21.25;17.50;;;;;;;;4899384;28;45354;-75
2023/01/20 08:39:38;;;;;;;;;23.00;20.75;;;;;;;;4899598;28;45364;-75
2023/01/20 08:42:04;;;;;;;;;26.25;22.25;;;;;;;;4899498;28;47195;-76
2023/01/20 08:44:29;;;;;;;;;25.25;23.75;;;;;;;;4899246;29;45350;-73
2023/01/20 08:46:58;;;;;;;;;17.50;17.00;;;;;;;;4899634;28;45369;-74
2023/01/20 08:49:23;;;;;;;;;12.00;9.25;;;;;;;;4899141;28;45573;-74
2023/01/20 08:51:49;;;;;;;;;24.50;17.50;;;;;;;;4905346;28;45508;-74
2023/01/20 08:54:14;;;;;;;;;20.75;19.75;;;;;;;;4916825;28;45326;-74
2023/01/20 08:56:39;;;;;;;;;18.75;18.25;;;;;;;;4918184;28;45358;-74
2023/01/20 08:59:05;;;;;;;;;19.50;16.00;;;;;;;;4918144;28;45530;-74
2023/01/20 09:01:32;;;;;;;;;19.75;17.00;;;;;;;;4918133;28;45409;-74
2023/01/20 09:03:58;;;;;;;;;24.50;23.00;;;;;;;;4918221;28;45578;-74
2023/01/20 09:06:23;;;;;;;;;18.00;18.00;;;;;;;;4917786;28;45388;-74
2023/01/20 09:08:49;;;;;;;;;23.25;21.50;;;;;;;;4918208;28;45385;-75
2023/01/20 09:11:16;;;;;;;;;19.75;19.25;;;;;;;;4917842;28;47000;-75
2023/01/20 09:13:41;;;;;;;;;22.00;22.00;;;;;;;;4917763;28;45330;-74
2023/01/20 09:16:07;;;;;;;;;17.00;16.00;;;;;;;;4917558;28;45336;-75
2023/01/20 09:18:33;;;;;;;;;19.50;17.00;;;;;;;;4917918;28;45377;-74
2023/01/20 09:20:59;;;;;;;;;14.00;12.50;;;;;;;;4917289;28;47086;-74
2023/01/20 09:23:24;;;;;;;;;23.25;17.75;;;;;;;;4917663;28;45233;-74
2023/01/20 09:25:50;;;;;;;;;21.00;19.00;;;;;;;;4918336;28;45262;-74
2023/01/20 09:28:15;;;;;;;;;17.50;17.50;;;;;;;;4916998;28;45416;-74
2023/01/20 09:30:41;;;;;;;;;18.00;14.75;;;;;;;;4917558;28;46265;-74
2023/01/20 09:33:08;;;;;;;;;15.50;13.75;;;;;;;;4917317;28;45378;-75
2023/01/20 09:35:33;;;;;;;;;16.50;14.75;;;;;;;;4917652;28;45421;-74
2023/01/20 09:43:55;;;;;;;;;21.75;17.75;;;;;;;;4917139;28;45454;-75
2023/01/20 09:46:41;;;;;;;;;18.50;14.50;;;;;;;;4917394;28;45355;-74
2023/01/20 09:55:34;;;;;;;;;9.50;9.00;;;;;;;;4917956;28;45421;-75
2023/01/20 09:58:18;;;;;;;;;19.25;17.50;;;;;;;;4918248;28;45393;-74
2023/01/20 10:00:50;;;;;;;;;18.00;16.25;;;;;;;;4917122;28;45453;-74
2023/01/20 10:03:21;;;;;;;;;10.25;10.25;;;;;;;;4917751;28;45378;-74
2023/01/20 10:05:48;;;;;;;;;15.00;13.75;;;;;;;;4916645;28;45378;-75
2023/01/20 10:08:20;;;;;;;;;16.50;16.50;;;;;;;;4916479;28;45429;-75
2023/01/20 10:10:49;;;;;;;;;20.00;16.25;;;;;;;;4917232;28;45421;-74
2023/01/20 10:13:25;;;;;;;;;11.25;9.75;;;;;;;;4917270;28;45448;-74
2023/01/20 10:15:53;;;;;;;;;16.00;11.75;;;;;;;;4917291;28;45394;-74
2023/01/20 10:18:38;;;;;;;;;13.00;12.00;;;;;;;;4917283;28;45435;-74
2023/01/20 10:21:21;;;;;;;;;12.00;10.25;;;;;;;;4917434;28;45330;-74
2023/01/20 10:24:19;;;;;;;;;10.50;10.50;;;;;;;;4917229;28;46404;-74
2023/01/20 10:26:47;;;;;;;;;11.00;7.75;;;;;;;;4895545;29;45329;-75
2023/01/20 10:29:16;;;;;;;;;7.25;7.25;;;;;;;;4896136;29;45353;-74
2023/01/20 10:31:45;;;;;;;;;11.75;10.50;;;;;;;;4895693;29;45575;-74
2023/01/20 10:34:17;;;;;;;;;7.00;7.00;;;;;;;;4895812;28;46218;-75
2023/01/20 10:36:45;;;;;;;;;5.00;5.00;;;;;;;;4895779;29;45330;-74
2023/01/20 10:39:20;;;;;;;;;15.75;12.75;;;;;;;;4895492;29;45390;-75
2023/01/20 10:41:49;;;;;;;;;10.50;9.00;;;;;;;;4895622;29;45461;-74
2023/01/20 10:44:15;;;;;;;;;8.50;6.50;;;;;;;;4895519;29;45439;-74
2023/01/20 10:46:55;;;;;;;;;8.75;8.75;;;;;;;;4894078;29;45511;-74
2023/01/20 10:49:45;;;;;;;;;11.00;11.00;;;;;;;;4877037;29;45554;-74
2023/01/20 10:52:17;;;;;;;;;12.50;10.50;;;;;;;;4887290;29;45485;-74
2023/01/20 10:54:48;;;;;;;;;10.25;9.50;;;;;;;;4898303;29;46100;-74
2023/01/20 10:57:14;;;;;;;;;10.50;9.75;;;;;;;;4898845;29;45416;-74
2023/01/20 10:59:41;;;;;;;;;8.00;8.00;;;;;;;;4898904;29;46262;-74
2023/01/20 11:02:15;;;;;;;;;7.50;6.75;;;;;;;;4907410;28;45522;-74
2023/01/20 11:04:40;;;;;;;;;16.00;13.75;;;;;;;;4919562;28;45880;-73
2023/01/20 11:07:11;;;;;;;;;11.75;11.75;;;;;;;;4919823;28;45295;-73
2023/01/20 11:09:37;;;;;;;;;14.50;13.75;;;;;;;;4920063;28;45363;-74
2023/01/20 11:12:05;;;;;;;;;12.25;11.50;;;;;;;;4918498;28;45379;-73
2023/01/20 11:14:30;;;;;;;;;9.00;4.25;;;;;;;;4918415;28;45639;-74
2023/01/20 11:17:00;;;;;;;;;14.25;12.25;;;;;;;;4919667;28;45517;-74
2023/01/20 11:19:25;;;;;;;;;14.00;12.00;;;;;;;;4919725;28;45361;-74
2023/01/20 11:21:50;;;;;;;;;11.00;9.75;;;;;;;;4918580;28;45428;-74
2023/01/20 11:24:34;;;;;;;;;12.75;11.75;;;;;;;;4919284;28;46245;-74
2023/01/20 11:27:04;;;;;;;;;11.00;7.25;;;;;;;;4919659;28;45507;-74
2023/01/20 11:29:33;;;;;;;;;9.50;7.00;;;;;;;;4919607;28;45342;-75
2023/01/20 11:31:58;;;;;;;;;9.25;9.25;;;;;;;;4918273;28;45359;-74
2023/01/20 11:34:30;;;;;;;;;16.00;11.25;;;;;;;;4919256;28;46198;-73
2023/01/20 11:37:04;;;;;;;;;9.00;8.75;;;;;;;;4919336;28;45385;-75
2023/01/20 11:39:34;;;;;;;;;14.00;13.25;;;;;;;;4919383;28;45315;-74
2023/01/20 11:42:10;;;;;;;;;15.00;11.75;;;;;;;;4918975;28;45347;-75
2023/01/20 11:44:43;;;;;;;;;11.25;9.25;;;;;;;;4919150;28;46345;-74
2023/01/20 11:47:21;;;;;;;;;9.00;8.00;;;;;;;;4905439;28;45969;-73
2023/01/20 11:50:04;;;;;;;;;10.00;7.50;;;;;;;;4898501;28;45383;-74
2023/01/20 11:52:29;;;;;;;;;6.50;6.25;;;;;;;;4909870;28;45724;-74
2023/01/20 11:55:07;;;;;;;;;9.50;9.50;;;;;;;;4900244;28;46293;-74
2023/01/20 11:57:33;;;;;;;;;13.25;7.50;;;;;;;;4900057;28;45380;-74
2023/01/20 11:59:58;;;;;;;;;10.50;8.75;;;;;;;;4900109;29;45294;-73
2023/01/20 12:02:23;;;;;;;;;9.00;5.50;;;;;;;;4899390;28;45277;-75
2023/01/20 12:04:49;;;;;;;;;14.00;13.00;;;;;;;;4899800;28;45808;-76
2023/01/20 12:07:19;;;;;;;;;11.25;6.25;;;;;;;;4899852;28;45754;-74
2023/01/20 12:09:48;;;;;;;;;7.25;7.25;;;;;;;;4900373;28;45435;-74
2023/01/20 12:12:19;;;;;;;;;9.00;9.00;;;;;;;;4900078;29;45316;-75
2023/01/20 12:15:01;;;;;;;;;11.75;9.00;;;;;;;;4899808;28;45389;-74
2023/01/20 12:17:37;;;;;;;;;5.75;4.00;;;;;;;;4899607;29;45497;-74
2023/01/20 12:20:05;;;;;;;;;8.25;8.25;;;;;;;;4899207;28;45366;-74
2023/01/20 12:22:33;;;;;;;;;8.50;8.50;;;;;;;;4899403;28;45407;-74
2023/01/20 12:25:08;;;;;;;;;10.50;10.25;;;;;;;;4898556;29;45346;-75
2023/01/20 12:27:35;;;;;;;;;8.00;7.50;;;;;;;;4898180;29;45378;-75
2023/01/20 12:30:06;;;;;;;;;8.50;8.25;;;;;;;;4900003;28;45371;-74
2023/01/20 12:32:32;;;;;;;;;9.75;8.75;;;;;;;;4899663;28;45423;-74
2023/01/20 12:34:57;;;;;;;;;11.50;10.25;;;;;;;;4899241;28;45300;-75
2023/01/20 12:37:48;;;;;;;;;7.50;7.00;;;;;;;;4899558;28;45307;-74
2023/01/20 12:40:34;;;;;;;;;8.75;7.25;;;;;;;;4899376;29;45279;-73
2023/01/20 12:43:06;;;;;;;;;6.25;6.25;;;;;;;;4899050;28;45654;-74
2023/01/20 12:45:31;;;;;;;;;16.75;16.75;;;;;;;;4898914;28;47738;-74
2023/01/20 12:48:25;;;;;;;;;11.00;10.00;;;;;;;;4899124;28;45600;-74
2023/01/20 12:51:08;;;;;;;;;6.00;6.00;;;;;;;;4898008;28;45315;-76
2023/01/20 12:53:37;;;;;;;;;9.25;7.00;;;;;;;;4879345;29;45406;-76
2023/01/20 12:56:11;;;;;;;;;7.50;5.00;;;;;;;;4880156;29;45497;-76
2023/01/20 12:58:55;;;;;;;;;7.75;6.75;;;;;;;;4880640;29;45674;-75
2023/01/20 13:01:20;;;;;;;;;7.00;6.00;;;;;;;;4880195;29;45422;-75
2023/01/20 13:03:55;;;;;;;;;12.75;6.00;;;;;;;;4899489;28;45266;-74
2023/01/20 13:06:29;;;;;;;;;2.00;1.00;;;;;;;;4918176;28;45398;-76
2023/01/20 13:09:14;;;;;;;;;10.25;6.50;;;;;;;;4918852;28;45378;-76
2023/01/20 13:11:39;;;;;;;;;3.75;3.75;;;;;;;;4918171;28;45350;-76
2023/01/20 13:14:13;;;;;;;;;6.75;6.75;;;;;;;;4917881;28;45358;-75
2023/01/20 13:16:49;;;;;;;;;5.00;5.00;;;;;;;;4918044;28;47738;-75
2023/01/20 13:19:16;;;;;;;;;7.00;5.50;;;;;;;;4917807;28;45327;-76
2023/01/20 13:21:41;;;;;;;;;6.25;6.25;;;;;;;;4917953;28;45682;-75
2023/01/20 13:24:17;;;;;;;;;8.50;6.25;;;;;;;;4917963;28;45573;-76
2023/01/20 13:26:43;;;;;;;;;3.25;3.25;;;;;;;;4918015;28;45410;-75
2023/01/20 13:29:19;;;;;;;;;5.50;5.50;;;;;;;;4917615;28;45330;-76
2023/01/20 13:31:44;;;;;;;;;5.75;4.75;;;;;;;;4917858;28;45381;-76
2023/01/20 13:34:22;;;;;;;;;4.00;4.00;;;;;;;;4916292;28;45556;-76
2023/01/20 13:37:02;;;;;;;;;4.00;3.00;;;;;;;;4917469;28;45309;-76
2023/01/20 13:39:28;;;;;;;;;4.25;4.25;;;;;;;;4917579;28;45322;-76
2023/01/20 13:41:53;;;;;;;;;10.00;7.00;;;;;;;;4918076;28;45316;-75
2023/01/20 13:44:24;;;;;;;;;4.75;4.00;;;;;;;;4917892;28;45343;-76
2023/01/20 13:46:49;;;;;;;;;4.75;4.00;;;;;;;;4916397;28;47434;-76
2023/01/20 13:49:22;;;;;;;;;3.00;3.00;;;;;;;;4917312;28;45702;-76
2023/01/20 13:51:47;;;;;;;;;5.75;5.75;;;;;;;;4917842;28;45379;-75
2023/01/20 13:54:21;;;;;;;;;5.50;5.50;;;;;;;;4917260;28;45540;-76
2023/01/20 13:56:47;;;;;;;;;9.75;7.25;;;;;;;;4917505;28;45322;-76
2023/01/20 13:59:12;;;;;;;;;6.00;6.00;;;;;;;;4917334;28;45351;-76
2023/01/20 14:01:38;;;;;;;;;4.00;4.00;;;;;;;;4917604;28;45295;-75
2023/01/20 14:04:13;;;;;;;;;5.50;4.00;;;;;;;;4917793;28;45303;-75
2023/01/20 14:06:47;;;;;;;;;4.00;4.00;;;;;;;;4917522;28;46406;-75
2023/01/20 14:09:23;;;;;;;;;8.00;7.00;;;;;;;;4917220;28;45500;-75
2023/01/20 14:11:49;;;;;;;;;4.00;4.00;;;;;;;;4917238;28;45281;-75
2023/01/20 14:14:17;;;;;;;;;16.00;16.00;;;;;;;;4917168;28;45393;-74
2023/01/20 14:16:43;;;;;;;;;4.75;4.50;;;;;;;;4916825;28;47585;-74
2023/01/20 14:19:14;;;;;;;;;4.75;4.75;;;;;;;;4917250;28;45365;-75
2023/01/20 14:21:40;;;;;;;;;8.25;6.75;;;;;;;;4917388;28;45433;-76
2023/01/20 14:24:05;;;;;;;;;8.75;7.50;;;;;;;;4917288;28;45312;-75
2023/01/20 14:26:30;;;;;;;;;8.00;5.50;;;;;;;;4919143;28;45445;-74
2023/01/20 14:28:56;;;;;;;;;4.75;3.25;;;;;;;;4920735;28;45421;-76
2023/01/20 14:31:41;;;;;;;;;6.75;4.50;;;;;;;;4919520;28;45434;-76
2023/01/20 14:34:22;;;;;;;;;7.75;7.75;;;;;;;;4920718;28;45449;-75
2023/01/20 14:36:47;;;;;;;;;10.00;10.00;;;;;;;;4916685;28;45412;-76
2023/01/20 14:39:23;;;;;;;;;4.75;3.75;;;;;;;;4908850;28;45430;-75
2023/01/20 14:41:53;;;;;;;;;3.00;3.00;;;;;;;;4906820;28;45427;-75
2023/01/20 14:44:25;;;;;;;;;5.75;4.75;;;;;;;;4904617;28;45243;-76